sensor_id;sensor_type;location;lat;lon;timestamp;pressure;altitude;pressure_sealevel;temperature;humidity
19795;BME280;10057;59.402;17.866;2023-02-15T00:01:56;102660.09;;;3.31;78.04
19795;BME280;10057;59.402;17.866;2023-02-15T00:04:24;102660.97;;;3.31;77.79
19795;BME280;10057;59.402;17.866;2023-02-15T00:07:14;102653.13;;;3.31;77.95
19795;BME280;10057;59.402;17.866;2023-02-15T00:09:41;102654.91;;;3.32;77.81
19795;BME280;10057;59.402;17.866;2023-02-15T00:12:09;102645.25;;;3.31;77.79
19795;BME280;10057;59.402;17.866;2023-02-15T00:14:36;102638.22;;;3.30;77.65
19795;BME280;10057;59.402;17.866;2023-02-15T00:17:03;102639.94;;;3.28;77.76
19795;BME280;10057;59.402;17.866;2023-02-15T00:19:29;102637.31;;;3.28;77.80
19795;BME280;10057;59.402;17.866;2023-02-15T00:21:56;102630.25;;;3.26;77.76
19795;BME280;10057;59.402;17.866;2023-02-15T00:24:23;102625.03;;;3.26;77.83
19795;BME280;10057;59.402;17.866;2023-02-15T00:26:50;102621.50;;;3.25;78.15
19795;BME280;10057;59.402;17.866;2023-02-15T00:29:18;102625.91;;;3.26;78.05
19795;BME280;10057;59.402;17.866;2023-02-15T00:31:45;102621.44;;;3.22;77.93
19795;BME280;10057;59.402;17.866;2023-02-15T00:34:15;102623.19;;;3.22;77.79
19795;BME280;10057;59.402;17.866;2023-02-15T00:36:43;102624.84;;;3.18;77.87
19795;BME280;10057;59.402;17.866;2023-02-15T00:39:11;102628.31;;;3.17;77.64
19795;BME280;10057;59.402;17.866;2023-02-15T00:41:38;102616.94;;;3.17;77.78
19795;BME280;10057;59.402;17.866;2023-02-15T00:44:05;102610.81;;;3.16;77.89
19795;BME280;10057;59.402;17.866;2023-02-15T00:46:32;102615.16;;;3.16;77.61
19795;BME280;10057;59.402;17.866;2023-02-15T00:48:59;102620.41;;;3.16;77.95
19795;BME280;10057;59.402;17.866;2023-02-15T00:51:26;102624.78;;;3.15;77.63
19795;BME280;10057;59.402;17.866;2023-02-15T00:53:53;102618.66;;;3.15;77.68
19795;BME280;10057;59.402;17.866;2023-02-15T00:56:20;102618.66;;;3.15;77.64
19795;BME280;10057;59.402;17.866;2023-02-15T00:58:47;102619.53;;;3.15;77.66
19795;BME280;10057;59.402;17.866;2023-02-15T01:01:19;102620.41;;;3.16;77.84
19795;BME280;10057;59.402;17.866;2023-02-15T01:03:47;102609.03;;;3.15;77.40
19795;BME280;10057;59.402;17.866;2023-02-15T01:06:15;102609.91;;;3.16;77.82
19795;BME280;10057;59.402;17.866;2023-02-15T01:08:44;102609.03;;;3.15;77.53
19795;BME280;10057;59.402;17.866;2023-02-15T01:11:13;102612.53;;;3.16;77.63
19795;BME280;10057;59.402;17.866;2023-02-15T01:13:41;102605.56;;;3.16;77.62
19795;BME280;10057;59.402;17.866;2023-02-15T01:16:07;102599.44;;;3.17;77.68
19795;BME280;10057;59.402;17.866;2023-02-15T01:18:35;102597.72;;;3.18;77.63
19795;BME280;10057;59.402;17.866;2023-02-15T01:21:18;102597.78;;;3.21;77.75
19795;BME280;10057;59.402;17.866;2023-02-15T01:23:45;102596.00;;;3.20;77.46
19795;BME280;10057;59.402;17.866;2023-02-15T01:26:13;102588.13;;;3.18;77.12
19795;BME280;10057;59.402;17.866;2023-02-15T01:28:39;102586.31;;;3.17;77.81
19795;BME280;10057;59.402;17.866;2023-02-15T01:31:12;102586.31;;;3.17;77.34
19795;BME280;10057;59.402;17.866;2023-02-15T01:33:39;102588.94;;;3.17;77.61
19795;BME280;10057;59.402;17.866;2023-02-15T01:36:06;102584.63;;;3.19;77.46
19795;BME280;10057;59.402;17.866;2023-02-15T01:38:34;102579.41;;;3.19;77.36
19795;BME280;10057;59.402;17.866;2023-02-15T01:41:01;102579.41;;;3.19;77.08
19795;BME280;10057;59.402;17.866;2023-02-15T01:43:51;102576.78;;;3.19;77.36
19795;BME280;10057;59.402;17.866;2023-02-15T01:46:22;102573.25;;;3.19;77.05
19795;BME280;10057;59.402;17.866;2023-02-15T01:48:56;102568.81;;;3.16;77.41
19795;BME280;10057;59.402;17.866;2023-02-15T01:51:27;102563.59;;;3.16;77.57
19795;BME280;10057;59.402;17.866;2023-02-15T01:54:05;102560.09;;;3.16;77.35
19795;BME280;10057;59.402;17.866;2023-02-15T01:56:35;102560.09;;;3.17;77.43
19795;BME280;10057;59.402;17.866;2023-02-15T01:59:06;102557.47;;;3.17;77.20
19795;BME280;10057;59.402;17.866;2023-02-15T02:01:34;102547.88;;;3.18;77.09
19795;BME280;10057;59.402;17.866;2023-02-15T02:04:08;102551.41;;;3.18;77.23
19795;BME280;10057;59.402;17.866;2023-02-15T02:06:37;102539.13;;;3.17;77.11
19795;BME280;10057;59.402;17.866;2023-02-15T02:09:05;102547.91;;;3.19;77.40
19795;BME280;10057;59.402;17.866;2023-02-15T02:11:33;102545.28;;;3.19;77.57
19795;BME280;10057;59.402;17.866;2023-02-15T02:14:00;102533.94;;;3.20;77.17
19795;BME280;10057;59.402;17.866;2023-02-15T02:30:52;102529.50;;;3.18;77.18
19795;BME280;10057;59.402;17.866;2023-02-15T02:33:54;102519.00;;;3.18;77.29
19795;BME280;10057;59.402;17.866;2023-02-15T02:39:04;102516.44;;;3.19;77.51
19795;BME280;10057;59.402;17.866;2023-02-15T02:44:29;102505.06;;;3.19;77.24
19795;BME280;10057;59.402;17.866;2023-02-15T02:47:05;102508.53;;;3.18;77.00
19795;BME280;10057;59.402;17.866;2023-02-15T02:49:38;102497.19;;;3.19;77.20
19795;BME280;10057;59.402;17.866;2023-02-15T02:55:20;102497.22;;;3.20;77.26
19795;BME280;10057;59.402;17.866;2023-02-15T02:58:03;102496.34;;;3.20;77.15
19795;BME280;10057;59.402;17.866;2023-02-15T03:00:36;102497.22;;;3.20;77.07
19795;BME280;10057;59.402;17.866;2023-02-15T03:03:07;102498.06;;;3.19;77.19
19795;BME280;10057;59.402;17.866;2023-02-15T03:05:40;102495.44;;;3.19;76.93
19795;BME280;10057;59.402;17.866;2023-02-15T03:08:08;102493.69;;;3.18;77.20
19795;BME280;10057;59.402;17.866;2023-02-15T03:10:39;102491.09;;;3.20;77.28
19795;BME280;10057;59.402;17.866;2023-02-15T03:13:07;102505.09;;;3.20;77.01
19795;BME280;10057;59.402;17.866;2023-02-15T03:15:38;102494.63;;;3.22;77.39
19795;BME280;10057;59.402;17.866;2023-02-15T03:18:34;102498.97;;;3.21;77.09
19795;BME280;10057;59.402;17.866;2023-02-15T03:21:02;102493.72;;;3.21;77.30
19795;BME280;10057;59.402;17.866;2023-02-15T03:23:32;102485.03;;;3.22;77.20
19795;BME280;10057;59.402;17.866;2023-02-15T03:26:05;102485.03;;;3.22;77.21
19795;BME280;10057;59.402;17.866;2023-02-15T03:28:45;102486.78;;;3.22;77.40
19795;BME280;10057;59.402;17.866;2023-02-15T03:31:14;102481.53;;;3.22;76.79
19795;BME280;10057;59.402;17.866;2023-02-15T03:33:49;102483.22;;;3.21;77.11
19795;BME280;10057;59.402;17.866;2023-02-15T03:36:22;102482.41;;;3.22;77.34
19795;BME280;10057;59.402;17.866;2023-02-15T03:39:18;102476.28;;;3.23;77.17
19795;BME280;10057;59.402;17.866;2023-02-15T03:42:11;102473.66;;;3.23;76.90
19795;BME280;10057;59.402;17.866;2023-02-15T03:44:59;102468.34;;;3.20;76.92
19795;BME280;10057;59.402;17.866;2023-02-15T03:47:33;102458.75;;;3.21;77.03
19795;BME280;10057;59.402;17.866;2023-02-15T03:50:05;102459.59;;;3.20;77.13
19795;BME280;10057;59.402;17.866;2023-02-15T03:52:55;102470.97;;;3.20;77.32
19795;BME280;10057;59.402;17.866;2023-02-15T03:55:23;102465.81;;;3.23;77.21
19795;BME280;10057;59.402;17.866;2023-02-15T03:57:51;102460.56;;;3.23;77.14
19795;BME280;10057;59.402;17.866;2023-02-15T04:00:39;102462.31;;;3.23;77.16
19795;BME280;10057;59.402;17.866;2023-02-15T04:03:37;102450.06;;;3.23;77.23
19795;BME280;10057;59.402;17.866;2023-02-15T04:06:06;102447.50;;;3.25;76.86
19795;BME280;10057;59.402;17.866;2023-02-15T04:08:33;102436.94;;;3.23;76.77
19795;BME280;10057;59.402;17.866;2023-02-15T04:11:37;102436.09;;;3.24;77.25
19795;BME280;10057;59.402;17.866;2023-02-15T04:14:04;102438.69;;;3.24;77.12
19795;BME280;10057;59.402;17.866;2023-02-15T04:16:51;102417.72;;;3.24;77.48
19795;BME280;10057;59.402;17.866;2023-02-15T04:19:18;102427.38;;;3.25;77.25
19795;BME280;10057;59.402;17.866;2023-02-15T04:22:03;102424.75;;;3.25;77.13
19795;BME280;10057;59.402;17.866;2023-02-15T04:24:49;102416.81;;;3.22;77.20
19795;BME280;10057;59.402;17.866;2023-02-15T04:27:33;102430.84;;;3.24;77.29
19795;BME280;10057;59.402;17.866;2023-02-15T04:30:00;102415.97;;;3.23;77.10
19795;BME280;10057;59.402;17.866;2023-02-15T04:32:27;102418.56;;;3.22;77.39
19795;BME280;10057;59.402;17.866;2023-02-15T04:34:54;102421.19;;;3.22;77.24
19795;BME280;10057;59.402;17.866;2023-02-15T04:37:20;102415.09;;;3.24;77.43
19795;BME280;10057;59.402;17.866;2023-02-15T04:39:47;102412.53;;;3.26;77.31
19795;BME280;10057;59.402;17.866;2023-02-15T04:42:14;102415.16;;;3.27;77.30
19795;BME280;10057;59.402;17.866;2023-02-15T04:44:40;102414.28;;;3.27;77.41
19795;BME280;10057;59.402;17.866;2023-02-15T04:47:07;102417.84;;;3.29;77.48
19795;BME280;10057;59.402;17.866;2023-02-15T04:49:34;102408.28;;;3.32;77.07
19795;BME280;10057;59.402;17.866;2023-02-15T04:52:01;102410.03;;;3.33;77.15
19795;BME280;10057;59.402;17.866;2023-02-15T04:54:28;102403.03;;;3.32;77.30
19795;BME280;10057;59.402;17.866;2023-02-15T04:56:54;102396.91;;;3.32;77.01
19795;BME280;10057;59.402;17.866;2023-02-15T04:59:21;102404.84;;;3.35;77.25
19795;BME280;10057;59.402;17.866;2023-02-15T05:01:48;102403.03;;;3.34;77.08
19795;BME280;10057;59.402;17.866;2023-02-15T05:04:14;102396.97;;;3.35;76.95
19795;BME280;10057;59.402;17.866;2023-02-15T05:06:41;102399.53;;;3.33;76.98
19795;BME280;10057;59.402;17.866;2023-02-15T05:09:08;102397.84;;;3.36;77.30
19795;BME280;10057;59.402;17.866;2023-02-15T05:11:35;102387.31;;;3.34;77.23
19795;BME280;10057;59.402;17.866;2023-02-15T05:14:01;102396.91;;;3.33;76.88
19795;BME280;10057;59.402;17.866;2023-02-15T05:16:28;102390.81;;;3.35;77.04
19795;BME280;10057;59.402;17.866;2023-02-15T05:18:55;102388.19;;;3.35;76.85
19795;BME280;10057;59.402;17.866;2023-02-15T05:21:22;102391.72;;;3.37;77.21
19795;BME280;10057;59.402;17.866;2023-02-15T05:23:49;102387.34;;;3.36;77.11
19795;BME280;10057;59.402;17.866;2023-02-15T05:26:19;102393.44;;;3.35;76.87
19795;BME280;10057;59.402;17.866;2023-02-15T05:29:04;102386.47;;;3.35;76.94
19795;BME280;10057;59.402;17.866;2023-02-15T05:31:32;102379.44;;;3.34;76.82
19795;BME280;10057;59.402;17.866;2023-02-15T05:33:59;102385.59;;;3.36;76.91
19795;BME280;10057;59.402;17.866;2023-02-15T05:36:26;102382.09;;;3.36;77.17
19795;BME280;10057;59.402;17.866;2023-02-15T05:38:53;102383.00;;;3.38;77.24
19795;BME280;10057;59.402;17.866;2023-02-15T05:41:19;102372.59;;;3.42;76.93
19795;BME280;10057;59.402;17.866;2023-02-15T05:43:46;102374.38;;;3.43;77.13
19795;BME280;10057;59.402;17.866;2023-02-15T05:46:13;102372.63;;;3.44;76.83
19795;BME280;10057;59.402;17.866;2023-02-15T05:48:40;102379.56;;;3.42;76.90
19795;BME280;10057;59.402;17.866;2023-02-15T05:51:10;102377.00;;;3.45;76.88
19795;BME280;10057;59.402;17.866;2023-02-15T05:53:40;102375.34;;;3.50;76.99
19795;BME280;10057;59.402;17.866;2023-02-15T05:56:08;102371.88;;;3.51;76.90
19795;BME280;10057;59.402;17.866;2023-02-15T05:58:37;102371.88;;;3.51;76.94
19795;BME280;10057;59.402;17.866;2023-02-15T06:01:15;102374.56;;;3.54;76.83
19795;BME280;10057;59.402;17.866;2023-02-15T06:03:44;102364.97;;;3.56;76.92
19795;BME280;10057;59.402;17.866;2023-02-15T06:06:12;102361.53;;;3.60;76.61
19795;BME280;10057;59.402;17.866;2023-02-15T06:08:38;102364.19;;;3.62;76.90
19795;BME280;10057;59.402;17.866;2023-02-15T06:11:05;102351.03;;;3.60;76.74
19795;BME280;10057;59.402;17.866;2023-02-15T06:13:33;102371.19;;;3.61;76.78
19795;BME280;10057;59.402;17.866;2023-02-15T06:16:04;102364.19;;;3.62;76.47
19795;BME280;10057;59.402;17.866;2023-02-15T06:18:31;102369.44;;;3.62;76.70
19795;BME280;10057;59.402;17.866;2023-02-15T06:20:58;102359.81;;;3.62;76.44
19795;BME280;10057;59.402;17.866;2023-02-15T06:23:24;102354.63;;;3.65;76.71
19795;BME280;10057;59.402;17.866;2023-02-15T06:25:51;102357.28;;;3.67;76.57
19795;BME280;10057;59.402;17.866;2023-02-15T06:28:18;102358.16;;;3.67;76.42
19795;BME280;10057;59.402;17.866;2023-02-15T06:30:44;102351.97;;;3.64;76.38
19795;BME280;10057;59.402;17.866;2023-02-15T06:33:11;102349.38;;;3.65;76.26
19795;BME280;10057;59.402;17.866;2023-02-15T06:35:38;102347.59;;;3.64;76.16
19795;BME280;10057;59.402;17.866;2023-02-15T06:38:05;102346.72;;;3.64;76.29
19795;BME280;10057;59.402;17.866;2023-02-15T06:40:31;102345.00;;;3.66;76.27
19795;BME280;10057;59.402;17.866;2023-02-15T06:42:58;102340.66;;;3.66;76.29
19795;BME280;10057;59.402;17.866;2023-02-15T06:45:25;102349.41;;;3.68;76.26
19795;BME280;10057;59.402;17.866;2023-02-15T06:47:51;102345.97;;;3.69;76.38
19795;BME280;10057;59.402;17.866;2023-02-15T06:50:18;102345.09;;;3.72;76.04
19795;BME280;10057;59.402;17.866;2023-02-15T06:52:45;102340.72;;;3.72;76.17
19795;BME280;10057;59.402;17.866;2023-02-15T06:55:11;102351.22;;;3.72;76.12
19795;BME280;10057;59.402;17.866;2023-02-15T06:57:38;102347.78;;;3.73;76.01
19795;BME280;10057;59.402;17.866;2023-02-15T07:00:05;102352.16;;;3.73;76.11
19795;BME280;10057;59.402;17.866;2023-02-15T07:02:32;102355.66;;;3.73;75.87
19795;BME280;10057;59.402;17.866;2023-02-15T07:04:59;102352.97;;;3.72;76.08
19795;BME280;10057;59.402;17.866;2023-02-15T07:07:26;102352.97;;;3.72;75.90
19795;BME280;10057;59.402;17.866;2023-02-15T07:09:53;102352.16;;;3.73;76.21
19795;BME280;10057;59.402;17.866;2023-02-15T07:12:19;102354.78;;;3.73;76.04
19795;BME280;10057;59.402;17.866;2023-02-15T07:15:05;102349.38;;;3.65;75.89
19795;BME280;10057;59.402;17.866;2023-02-15T07:17:33;102347.59;;;3.64;76.08
19795;BME280;10057;59.402;17.866;2023-02-15T07:20:04;102358.97;;;3.65;75.96
19795;BME280;10057;59.402;17.866;2023-02-15T07:22:31;102355.53;;;3.67;76.31
19795;BME280;10057;59.402;17.866;2023-02-15T07:25:00;102349.38;;;3.65;76.22
19795;BME280;10057;59.402;17.866;2023-02-15T07:27:27;102345.00;;;3.66;76.14
19795;BME280;10057;59.402;17.866;2023-02-15T07:29:54;102357.28;;;3.68;76.09
19795;BME280;10057;59.402;17.866;2023-02-15T07:32:20;102345.97;;;3.69;76.15
19795;BME280;10057;59.402;17.866;2023-02-15T07:34:47;102337.22;;;3.72;76.04
19795;BME280;10057;59.402;17.866;2023-02-15T07:37:14;102344.25;;;3.73;75.94
19795;BME280;10057;59.402;17.866;2023-02-15T07:39:41;102340.78;;;3.74;75.78
19795;BME280;10057;59.402;17.866;2023-02-15T07:42:07;102343.41;;;3.75;75.49
19795;BME280;10057;59.402;17.866;2023-02-15T07:44:34;102340.78;;;3.75;75.85
19795;BME280;10057;59.402;17.866;2023-02-15T07:47:01;102337.31;;;3.76;76.07
19795;BME280;10057;59.402;17.866;2023-02-15T07:49:27;102340.84;;;3.78;75.81
19795;BME280;10057;59.402;17.866;2023-02-15T07:51:54;102340.00;;;3.79;75.58
19795;BME280;10057;59.402;17.866;2023-02-15T07:54:21;102337.34;;;3.78;75.78
19795;BME280;10057;59.402;17.866;2023-02-15T07:56:47;102332.06;;;3.76;75.93
19795;BME280;10057;59.402;17.866;2023-02-15T07:59:14;102332.13;;;3.79;75.82
19795;BME280;10057;59.402;17.866;2023-02-15T08:01:41;102335.63;;;3.82;75.77
19795;BME280;10057;59.402;17.866;2023-02-15T08:04:08;102325.13;;;3.82;75.62
19795;BME280;10057;59.402;17.866;2023-02-15T08:06:37;102333.00;;;3.82;75.87
19795;BME280;10057;59.402;17.866;2023-02-15T08:09:08;102329.50;;;3.81;75.99
19795;BME280;10057;59.402;17.866;2023-02-15T08:11:36;102328.63;;;3.80;75.69
19795;BME280;10057;59.402;17.866;2023-02-15T08:14:06;102322.47;;;3.78;75.64
19795;BME280;10057;59.402;17.866;2023-02-15T08:19:17;102316.31;;;3.76;75.78
19795;BME280;10057;59.402;17.866;2023-02-15T08:21:47;102314.56;;;3.78;75.38
19795;BME280;10057;59.402;17.866;2023-02-15T08:24:15;102311.94;;;3.78;75.63
19795;BME280;10057;59.402;17.866;2023-02-15T08:26:43;102316.31;;;3.76;75.82
19795;BME280;10057;59.402;17.866;2023-02-15T08:29:11;102315.44;;;3.77;75.81
19795;BME280;10057;59.402;17.866;2023-02-15T08:31:38;102313.69;;;3.78;75.48
19795;BME280;10057;59.402;17.866;2023-02-15T08:34:13;102304.88;;;3.73;75.49
19795;BME280;10057;59.402;17.866;2023-02-15T08:36:40;102304.00;;;3.74;75.67
19795;BME280;10057;59.402;17.866;2023-02-15T08:39:07;102298.78;;;3.75;75.88
19795;BME280;10057;59.402;17.866;2023-02-15T08:41:35;102307.59;;;3.79;75.85
19795;BME280;10057;59.402;17.866;2023-02-15T08:44:05;102297.94;;;3.78;75.80
19795;BME280;10057;59.402;17.866;2023-02-15T08:46:35;102286.53;;;3.74;75.54
19795;BME280;10057;59.402;17.866;2023-02-15T08:49:02;102288.22;;;3.72;75.72
19795;BME280;10057;59.402;17.866;2023-02-15T08:51:31;102283.88;;;3.74;75.61
19795;BME280;10057;59.402;17.866;2023-02-15T08:54:02;102283.03;;;3.75;75.66
19795;BME280;10057;59.402;17.866;2023-02-15T08:56:32;102284.78;;;3.75;75.80
19795;BME280;10057;59.402;17.866;2023-02-15T08:58:59;102281.28;;;3.76;75.55
19795;BME280;10057;59.402;17.866;2023-02-15T09:01:31;102288.31;;;3.78;75.56
19795;BME280;10057;59.402;17.866;2023-02-15T09:04:02;102279.50;;;3.73;75.45
19795;BME280;10057;59.402;17.866;2023-02-15T09:06:31;102270.75;;;3.74;75.75
19795;BME280;10057;59.402;17.866;2023-02-15T09:08:58;102284.81;;;3.76;75.96
19795;BME280;10057;59.402;17.866;2023-02-15T09:11:27;102274.31;;;3.76;75.54
19795;BME280;10057;59.402;17.866;2023-02-15T09:13:59;102279.53;;;3.75;75.55
19795;BME280;10057;59.402;17.866;2023-02-15T09:16:29;102280.50;;;3.80;75.56
19795;BME280;10057;59.402;17.866;2023-02-15T09:18:56;102279.63;;;3.83;75.75
19795;BME280;10057;59.402;17.866;2023-02-15T09:21:28;102275.31;;;3.86;75.47
19795;BME280;10057;59.402;17.866;2023-02-15T09:23:57;102270.97;;;3.87;75.12
19795;BME280;10057;59.402;17.866;2023-02-15T09:26:28;102269.22;;;3.89;75.50
19795;BME280;10057;59.402;17.866;2023-02-15T09:28:57;102277.09;;;3.89;75.41
19795;BME280;10057;59.402;17.866;2023-02-15T09:31:27;102269.22;;;3.89;75.25
19795;BME280;10057;59.402;17.866;2023-02-15T09:33:54;102270.13;;;3.91;75.05
19795;BME280;10057;59.402;17.866;2023-02-15T09:36:26;102272.78;;;3.91;75.15
19795;BME280;10057;59.402;17.866;2023-02-15T09:39:18;102269.16;;;3.86;75.17
19795;BME280;10057;59.402;17.866;2023-02-15T10:05:06;102243.06;;;3.93;74.70
19795;BME280;10057;59.402;17.866;2023-02-15T10:13:00;102234.34;;;3.97;74.91
19795;BME280;10057;59.402;17.866;2023-02-15T10:15:56;102228.22;;;3.97;74.72
19795;BME280;10057;59.402;17.866;2023-02-15T10:18:55;102224.72;;;3.98;74.43
19795;BME280;10057;59.402;17.866;2023-02-15T10:21:33;102215.09;;;3.97;74.40
19795;BME280;10057;59.402;17.866;2023-02-15T10:26:46;102215.09;;;3.97;74.44
19795;BME280;10057;59.402;17.866;2023-02-15T10:31:51;102203.72;;;3.98;74.47
19795;BME280;10057;59.402;17.866;2023-02-15T10:43:09;102188.84;;;4.00;74.53
19795;BME280;10057;59.402;17.866;2023-02-15T10:46:37;102195.88;;;4.01;74.46
19795;BME280;10057;59.402;17.866;2023-02-15T10:51:52;102186.16;;;3.95;74.29
19795;BME280;10057;59.402;17.866;2023-02-15T10:57:24;102182.66;;;3.95;74.59
19795;BME280;10057;59.402;17.866;2023-02-15T11:00:19;102180.03;;;3.95;74.45
19795;BME280;10057;59.402;17.866;2023-02-15T11:08:24;102180.94;;;3.98;74.28
19795;BME280;10057;59.402;17.866;2023-02-15T11:10:58;102171.31;;;3.99;74.48
19795;BME280;10057;59.402;17.866;2023-02-15T11:13:36;102165.19;;;4.00;74.30
19795;BME280;10057;59.402;17.866;2023-02-15T11:16:11;102173.06;;;4.00;74.59
19795;BME280;10057;59.402;17.866;2023-02-15T11:18:43;102165.25;;;4.03;74.45
19795;BME280;10057;59.402;17.866;2023-02-15T11:21:29;102159.16;;;4.04;74.56
19795;BME280;10057;59.402;17.866;2023-02-15T11:23:59;102160.03;;;4.04;74.24
19795;BME280;10057;59.402;17.866;2023-02-15T11:26:33;102160.03;;;4.04;74.46
19795;BME280;10057;59.402;17.866;2023-02-15T11:31:45;102150.44;;;4.08;74.45
19795;BME280;10057;59.402;17.866;2023-02-15T11:34:40;102149.56;;;4.08;74.45
19795;BME280;10057;59.402;17.866;2023-02-15T11:37:11;102147.81;;;4.10;74.56
19795;BME280;10057;59.402;17.866;2023-02-15T11:39:42;102150.47;;;4.11;74.41
19795;BME280;10057;59.402;17.866;2023-02-15T11:42:14;102146.09;;;4.12;74.29
19795;BME280;10057;59.402;17.866;2023-02-15T11:44:55;102136.47;;;4.12;74.34
19795;BME280;10057;59.402;17.866;2023-02-15T11:47:23;102142.63;;;4.14;74.27
19795;BME280;10057;59.402;17.866;2023-02-15T11:49:49;102141.75;;;4.15;74.19
19795;BME280;10057;59.402;17.866;2023-02-15T11:52:17;102139.13;;;4.15;74.37
19795;BME280;10057;59.402;17.866;2023-02-15T11:54:47;102141.75;;;4.15;74.21
19795;BME280;10057;59.402;17.866;2023-02-15T11:57:33;102140.00;;;4.14;74.46
19795;BME280;10057;59.402;17.866;2023-02-15T12:00:06;102138.22;;;4.13;74.33
19795;BME280;10057;59.402;17.866;2023-02-15T12:02:38;102136.47;;;4.12;74.29
19795;BME280;10057;59.402;17.866;2023-02-15T12:05:15;102126.78;;;4.10;74.30
19795;BME280;10057;59.402;17.866;2023-02-15T12:08:00;102130.31;;;4.09;74.19
19795;BME280;10057;59.402;17.866;2023-02-15T12:10:40;102124.13;;;4.05;73.99
19795;BME280;10057;59.402;17.866;2023-02-15T12:13:14;102128.50;;;4.04;74.23
19795;BME280;10057;59.402;17.866;2023-02-15T12:15:53;102123.22;;;4.03;74.25
19795;BME280;10057;59.402;17.866;2023-02-15T12:18:34;102112.66;;;4.00;74.04
19795;BME280;10057;59.402;17.866;2023-02-15T12:21:10;102115.31;;;4.00;74.09
19795;BME280;10057;59.402;17.866;2023-02-15T12:23:46;102117.03;;;3.98;74.43
19795;BME280;10057;59.402;17.866;2023-02-15T12:26:15;102117.91;;;3.97;74.32
19795;BME280;10057;59.402;17.866;2023-02-15T12:28:49;102115.28;;;3.98;74.29
19795;BME280;10057;59.402;17.866;2023-02-15T12:33:55;102103.91;;;3.99;74.37
19795;BME280;10057;59.402;17.866;2023-02-15T12:36:26;102103.03;;;3.99;74.24
19795;BME280;10057;59.402;17.866;2023-02-15T12:39:19;102105.72;;;4.00;74.32
19795;BME280;10057;59.402;17.866;2023-02-15T12:41:58;102098.66;;;3.99;74.20
19795;BME280;10057;59.402;17.866;2023-02-15T12:44:36;102096.91;;;3.97;74.32
19795;BME280;10057;59.402;17.866;2023-02-15T12:47:21;102094.28;;;3.97;74.52
19795;BME280;10057;59.402;17.866;2023-02-15T12:50:24;102097.72;;;3.93;74.34
19795;BME280;10057;59.402;17.866;2023-02-15T12:53:21;102083.66;;;3.89;74.35
19795;BME280;10057;59.402;17.866;2023-02-15T12:56:10;102084.53;;;3.87;74.39
19795;BME280;10057;59.402;17.866;2023-02-15T12:58:41;102074.84;;;3.83;74.34
19795;BME280;10057;59.402;17.866;2023-02-15T13:01:15;102074.84;;;3.83;74.53
19795;BME280;10057;59.402;17.866;2023-02-15T13:04:01;102074.81;;;3.79;74.56
19795;BME280;10057;59.402;17.866;2023-02-15T13:06:34;102069.53;;;3.76;74.43
19795;BME280;10057;59.402;17.866;2023-02-15T13:09:53;102073.03;;;3.78;74.55
19795;BME280;10057;59.402;17.866;2023-02-15T13:12:03;102066.03;;;3.77;74.54
19795;BME280;10057;59.402;17.866;2023-02-15T13:14:35;102071.28;;;3.77;74.68
19795;BME280;10057;59.402;17.866;2023-02-15T13:17:03;102060.75;;;3.74;74.73
19795;BME280;10057;59.402;17.866;2023-02-15T13:19:42;102059.00;;;3.73;74.52
19795;BME280;10057;59.402;17.866;2023-02-15T13:22:15;102058.97;;;3.72;74.56
19795;BME280;10057;59.402;17.866;2023-02-15T13:24:50;102053.72;;;3.72;74.67
19795;BME280;10057;59.402;17.866;2023-02-15T13:27:23;102054.63;;;3.74;74.86
19795;BME280;10057;59.402;17.866;2023-02-15T13:29:56;102051.09;;;3.72;74.76
19795;BME280;10057;59.402;17.866;2023-02-15T13:32:30;102047.59;;;3.71;74.81
19795;BME280;10057;59.402;17.866;2023-02-15T13:35:00;102050.22;;;3.71;74.82
19795;BME280;10057;59.402;17.866;2023-02-15T13:37:54;102052.88;;;3.73;74.96
19795;BME280;10057;59.402;17.866;2023-02-15T13:40:48;102048.50;;;3.73;74.88
19795;BME280;10057;59.402;17.866;2023-02-15T13:48:46;102038.88;;;3.74;74.83
19795;BME280;10057;59.402;17.866;2023-02-15T13:57:05;102030.97;;;3.69;74.92
19795;BME280;10057;59.402;17.866;2023-02-15T14:02:56;102020.38;;;3.65;74.82
19795;BME280;10057;59.402;17.866;2023-02-15T14:13:48;102026.47;;;3.61;74.87
19795;BME280;10057;59.402;17.866;2023-02-15T14:16:30;102012.44;;;3.59;74.92
19795;BME280;10057;59.402;17.866;2023-02-15T14:21:51;102021.19;;;3.58;74.96
19795;BME280;10057;59.402;17.866;2023-02-15T14:24:37;102019.44;;;3.58;75.27
19795;BME280;10057;59.402;17.866;2023-02-15T14:30:53;102015.94;;;3.56;75.13
19795;BME280;10057;59.402;17.866;2023-02-15T14:36:07;102004.50;;;3.52;75.21
19795;BME280;10057;59.402;17.866;2023-02-15T14:41:41;102000.19;;;3.56;75.26
19795;BME280;10057;59.402;17.866;2023-02-15T14:44:42;102002.81;;;3.56;75.05
19795;BME280;10057;59.402;17.866;2023-02-15T14:47:22;101996.66;;;3.54;75.09
19795;BME280;10057;59.402;17.866;2023-02-15T14:49:52;101994.91;;;3.54;75.38
19795;BME280;10057;59.402;17.866;2023-02-15T14:52:19;101991.41;;;3.54;75.23
19795;BME280;10057;59.402;17.866;2023-02-15T14:59:59;101981.72;;;3.50;75.14
19795;BME280;10057;59.402;17.866;2023-02-15T15:05:18;101984.31;;;3.45;75.28
19795;BME280;10057;59.402;17.866;2023-02-15T15:18:06;101974.56;;;3.37;75.58
19795;BME280;10057;59.402;17.866;2023-02-15T15:20:49;101972.78;;;3.34;75.24
19795;BME280;10057;59.402;17.866;2023-02-15T15:25:58;101978.84;;;3.28;75.57
19795;BME280;10057;59.402;17.866;2023-02-15T15:31:22;101976.13;;;3.19;75.65
19795;BME280;10057;59.402;17.866;2023-02-15T15:48:15;101956.88;;;3.20;75.54
19795;BME280;10057;59.402;17.866;2023-02-15T15:50:45;101954.22;;;3.16;75.75
19795;BME280;10057;59.402;17.866;2023-02-15T15:53:20;101954.19;;;3.14;76.02
19795;BME280;10057;59.402;17.866;2023-02-15T15:55:52;101943.69;;;3.13;75.63